Time;durP1;ratioP1;P1;durP2;ratioP2;P2;SDS_P1;SDS_P2;PMS_P1;PMS_P2;Temp;Humidity;BMP_temperature;BMP_pressure;BME280_temperature;BME280_humidity;BME280_pressure;Samples;Min_cycle;Max_cycle;Signal;HPM_P1;HPM_P2
2021/12/24 00:01:12;;;;;;;;;;;0.90;2201.60;;;;;;6157607;23;20055;-89
2021/12/24 00:03:38;;;;;;;239.63;136.73;;;0.90;2201.60;;;;;;6156974;23;20279;-88
2021/12/24 00:06:06;;;;;;;261.15;152.05;;;0.90;2201.60;;;;;;6156805;23;20005;-90
2021/12/24 00:08:33;;;;;;;283.17;163.50;;;0.80;2201.60;;;;;;6157654;23;20012;-89
2021/12/24 00:11:01;;;;;;;276.23;159.77;;;0.90;2201.60;;;;;;6157574;23;20416;-89
2021/12/24 00:13:33;;;;;;;263.27;151.77;;;0.80;2201.60;;;;;;6157604;23;19997;-91
2021/12/24 00:16:11;;;;;;;229.60;137.35;;;0.90;2201.60;;;;;;6157649;23;20009;-89
2021/12/24 00:18:47;;;;;;;250.20;144.93;;;0.80;2201.60;;;;;;6157435;23;20012;-91
2021/12/24 00:37:31;;;;;;;368.95;209.00;;;0.80;2201.60;;;;;;6168650;23;20423;-89
2021/12/24 00:42:23;;;;;;;491.13;279.75;;;0.90;2201.60;;;;;;6158752;23;19998;-90
2021/12/24 00:44:49;;;;;;;510.85;297.40;;;0.90;2201.60;;;;;;6156974;23;20027;-88
2021/12/24 00:47:15;;;;;;;430.30;254.60;;;25.60;2201.60;;;;;;6157055;23;20055;-89
2021/12/24 00:49:42;;;;;;;353.60;208.13;;;0.90;2201.60;;;;;;6157048;23;20002;-89
2021/12/24 00:55:09;;;;;;;223.13;129.95;;;0.90;2201.60;;;;;;6158198;23;20089;-90
2021/12/24 00:57:53;;;;;;;195.40;112.78;;;0.80;2201.60;;;;;;6157019;23;20080;-90
2021/12/24 01:00:30;;;;;;;191.75;118.90;;;0.50;2201.60;;;;;;6157273;23;20031;-90
2021/12/24 01:02:59;;;;;;;353.25;181.23;;;0.60;2201.60;;;;;;6157094;23;20005;-89
2021/12/24 01:05:27;;;;;;;255.35;135.85;;;0.50;2201.60;;;;;;6156993;23;20009;-89
2021/12/24 01:07:56;;;;;;;241.88;141.80;;;0.60;2201.60;;;;;;6156305;23;20017;-91
2021/12/24 01:10:26;;;;;;;244.75;142.13;;;0.50;2201.60;;;;;;6157143;23;20427;-89
2021/12/24 01:12:52;;;;;;;238.38;140.00;;;0.50;2201.60;;;;;;6157205;23;20001;-89
2021/12/24 01:15:19;;;;;;;240.75;140.35;;;0.70;2201.60;;;;;;6157183;23;20059;-92
2021/12/24 01:18:06;;;;;;;253.65;146.68;;;0.30;2201.60;;;;;;6157165;23;20423;-90
2021/12/24 01:20:51;;;;;;;298.45;169.05;;;0.70;2201.60;;;;;;6156822;23;20081;-89
2021/12/24 01:23:35;;;;;;;279.80;164.13;;;0.60;2201.60;;;;;;6156589;23;20008;-89
2021/12/24 01:26:15;;;;;;;277.23;157.70;;;0.60;2201.60;;;;;;6156303;23;20312;-89
2021/12/24 01:42:42;;;;;;;156.20;93.55;;;0.60;2201.60;;;;;;6157594;23;20461;-91
2021/12/24 01:45:37;;;;;;;148.82;90.18;;;0.50;2201.60;;;;;;6155751;23;20009;-90
2021/12/24 01:48:09;;;;;;;151.57;92.68;;;0.60;2201.60;;;;;;6156719;23;20080;-88
2021/12/24 01:50:37;;;;;;;162.93;97.27;;;0.70;2201.60;;;;;;6156328;23;20002;-90
2021/12/24 01:53:05;;;;;;;218.85;125.82;;;0.70;2201.60;;;;;;6156491;23;20458;-91
2021/12/24 01:55:31;;;;;;;269.38;146.75;;;0.70;2201.60;;;;;;6156399;23;20088;-90
2021/12/24 01:57:57;;;;;;;306.13;171.18;;;0.60;2201.60;;;;;;6156037;23;20037;-90
2021/12/24 02:00:37;;;;;;;342.98;194.65;;;0.60;2201.60;;;;;;6156731;23;19997;-89
2021/12/24 02:03:05;;;;;;;314.27;176.48;;;0.70;2201.60;;;;;;6156591;23;20028;-89
2021/12/24 02:05:31;;;;;;;303.10;176.43;;;0.70;2201.60;;;;;;6156165;23;20016;-88
2021/12/24 02:07:58;;;;;;;304.15;175.68;;;0.80;2201.60;;;;;;6155925;23;20013;-88
2021/12/24 02:10:24;;;;;;;295.58;172.88;;;0.60;2201.60;;;;;;6156150;23;20001;-89
2021/12/24 02:12:51;;;;;;;239.90;141.70;;;0.60;2201.60;;;;;;6172071;23;20057;-90
2021/12/24 02:18:46;;;;;;;179.10;109.60;;;0.50;2201.60;;;;;;6159271;23;20025;-90
2021/12/24 02:29:20;;;;;;;158.90;95.25;;;0.30;2201.60;;;;;;6164713;23;20008;-88
2021/12/24 02:31:46;;;;;;;165.68;99.50;;;0.00;2201.60;;;;;;6155903;23;19998;-89
2021/12/24 02:34:12;;;;;;;167.55;97.00;;;0.20;2201.60;;;;;;6156095;23;20033;-89
2021/12/24 02:36:38;;;;;;;173.82;102.32;;;0.20;2201.60;;;;;;6156207;23;20001;-89
2021/12/24 02:39:05;;;;;;;216.88;116.50;;;0.20;2201.60;;;;;;6156188;23;20063;-89
2021/12/24 02:41:34;;;;;;;197.30;114.72;;;0.20;2201.60;;;;;;6156067;23;20009;-89
2021/12/24 02:44:00;;;;;;;174.30;105.35;;;0.00;2201.60;;;;;;6155139;23;20033;-88
2021/12/24 02:46:52;;;;;;;220.93;121.60;;;12.90;2201.60;;;;;;6155890;23;20037;-91
2021/12/24 02:53:54;;;;;;;247.82;126.15;;;0.10;2201.60;;;;;;6157350;23;19997;-89
2021/12/24 02:54:49;;;;;;;234.25;130.20;;;0.10;2201.60;;;;;;6156960;23;20008;-91
2021/12/24 02:57:16;;;;;;;245.50;130.57;;;0.40;2201.60;;;;;;6156223;23;20001;-89
2021/12/24 02:59:57;;;;;;;229.90;132.45;;;0.10;2201.60;;;;;;6156045;23;20009;-87
2021/12/24 03:02:24;;;;;;;224.00;129.50;;;0.10;2201.60;;;;;;6155604;23;20055;-89
2021/12/24 03:04:51;;;;;;;249.00;137.63;;;12.90;2201.60;;;;;;6155783;23;20551;-92
2021/12/24 03:07:17;;;;;;;198.30;114.75;;;0.10;2201.60;;;;;;6155123;23;20093;-90
2021/12/24 03:09:43;;;;;;;180.05;107.75;;;12.90;2201.60;;;;;;6156068;23;20001;-89
2021/12/24 03:12:10;;;;;;;188.93;109.03;;;13.00;2201.60;;;;;;6155498;23;19998;-90
2021/12/24 03:14:36;;;;;;;182.60;107.22;;;12.90;2201.60;;;;;;6156222;23;20407;-90
2021/12/24 03:17:10;;;;;;;161.38;100.93;;;13.30;2201.60;;;;;;6156080;23;20025;-90
2021/12/24 03:25:12;;;;;;;179.90;104.15;;;13.10;2201.60;;;;;;6156006;23;20339;-91
2021/12/24 03:27:39;;;;;;;195.52;110.00;;;0.90;2201.60;;;;;;6131596;23;20028;-89
2021/12/24 03:30:08;;;;;;;183.02;109.88;;;13.10;2201.60;;;;;;6155517;23;20422;-92
2021/12/24 03:32:37;;;;;;;229.45;128.10;;;13.00;2201.60;;;;;;6155501;23;20088;-89
2021/12/24 03:35:12;;;;;;;204.27;117.45;;;13.10;2201.60;;;;;;6155869;23;20005;-91
2021/12/24 03:37:44;;;;;;;277.65;155.88;;;0.40;2201.60;;;;;;6155830;23;20002;-89
2021/12/24 03:40:11;;;;;;;;;;;13.00;2201.60;;;;;;6153340;23;20367;-91
2021/12/24 03:42:41;;;;;;;182.25;107.45;;;12.90;2201.60;;;;;;6156003;23;19971;-91
2021/12/24 03:45:22;;;;;;;172.57;104.35;;;13.10;2201.60;;;;;;6131430;23;20010;-90
2021/12/24 03:47:55;;;;;;;178.25;107.70;;;12.90;2201.60;;;;;;6155154;23;20474;-92
2021/12/24 03:50:23;;;;;;;176.65;108.68;;;13.10;2201.60;;;;;;6155933;23;20345;-88
2021/12/24 03:53:03;;;;;;;167.48;102.63;;;13.10;2201.60;;;;;;6155209;23;20001;-90
2021/12/24 03:55:29;;;;;;;184.77;106.22;;;13.00;2201.60;;;;;;6155966;23;20001;-90
2021/12/24 03:57:57;;;;;;;206.82;124.85;;;13.00;2201.60;;;;;;6155787;23;20473;-90
2021/12/24 04:00:29;;;;;;;196.52;121.57;;;13.20;2201.60;;;;;;6155767;23;20002;-90
2021/12/24 04:07:04;;;;;;;210.00;119.70;;;13.30;2201.60;;;;;;6038055;23;20103;-88
2021/12/24 05:54:16;;;;;;;181.00;104.30;;;13.40;2201.60;;;;;;6187318;23;20027;-91
2021/12/24 05:57:40;;;;;;;147.23;87.70;;;13.00;2201.60;;;;;;6186547;23;20052;-90
2021/12/24 06:00:16;;;;;;;221.00;133.57;;;13.20;2201.60;;;;;;6171119;23;20025;-88
2021/12/24 06:08:55;;;;;;;259.38;150.23;;;13.10;2201.60;;;;;;6187343;23;20008;-89
2021/12/24 06:21:40;;;;;;;311.02;172.02;;;13.20;2201.60;;;;;;6187662;23;20117;-88
2021/12/24 06:24:06;;;;;;;328.10;183.20;;;13.10;2201.60;;;;;;6111893;23;20143;-91
2021/12/24 06:30:43;;;;;;;239.88;138.18;;;13.20;2201.60;;;;;;6187310;23;20012;-89
2021/12/24 06:48:02;;;;;;;359.48;206.65;;;13.20;2201.60;;;;;;6097376;23;20018;-86
2021/12/24 07:07:22;;;;;;;382.40;225.95;;;0.00;2201.60;;;;;;6077396;23;20141;-89
2021/12/24 07:09:50;;;;;;;416.38;245.80;;;0.10;2201.60;;;;;;6072761;23;20077;-89
2021/12/24 07:12:17;;;;;;;449.70;273.95;;;0.60;2201.60;;;;;;6072045;23;20433;-89
2021/12/24 07:14:46;;;;;;;421.08;254.10;;;0.10;2201.60;;;;;;6048200;23;20086;-91
2021/12/24 07:17:12;;;;;;;444.58;266.52;;;0.10;2201.60;;;;;;6071864;23;19998;-89
2021/12/24 07:19:39;;;;;;;490.35;299.80;;;0.10;2201.60;;;;;;6048131;23;20002;-90
2021/12/24 07:22:07;;;;;;;458.60;271.02;;;0.00;2201.60;;;;;;6071833;23;20006;-89
2021/12/24 07:24:40;;;;;;;436.08;254.88;;;0.00;2201.60;;;;;;6071777;23;20077;-90
2021/12/24 07:27:06;;;;;;;423.45;255.38;;;0.10;2201.60;;;;;;6072251;23;20030;-89
2021/12/24 07:29:33;;;;;;;433.52;256.83;;;0.20;2201.60;;;;;;6073852;23;20009;-89
2021/12/24 07:32:03;;;;;;;416.27;248.40;;;0.10;2201.60;;;;;;6073722;23;20014;-89
2021/12/24 07:34:32;;;;;;;470.02;284.70;;;0.40;2201.60;;;;;;6124080;23;20087;-89
2021/12/24 07:36:58;;;;;;;472.05;294.15;;;0.50;2201.60;;;;;;6160356;23;20310;-88
2021/12/24 07:39:24;;;;;;;470.05;287.95;;;0.50;2201.60;;;;;;6160556;23;20008;-89
2021/12/24 07:41:51;;;;;;;441.20;280.80;;;0.60;2201.60;;;;;;6160784;23;19993;-90
2021/12/24 07:44:18;;;;;;;402.60;257.65;;;0.50;2201.60;;;;;;6161554;23;19997;-92
2021/12/24 07:46:52;;;;;;;473.63;299.40;;;0.60;2201.60;;;;;;6161406;23;20016;-89
2021/12/24 07:51:54;;;;;;;422.25;260.52;;;0.60;2201.60;;;;;;6162538;23;20296;-89
2021/12/24 07:56:52;;;;;;;424.85;265.33;;;0.70;2201.60;;;;;;6040152;23;20043;-89
2021/12/24 08:07:16;;;;;;;446.08;280.77;;;25.70;2201.60;;;;;;6035707;23;20030;-91
2021/12/24 08:09:42;;;;;;;367.73;238.43;;;25.80;2201.60;;;;;;6029610;23;20285;-87
2021/12/24 08:12:10;;;;;;;331.42;208.10;;;25.90;2201.60;;;;;;6102696;23;20013;-85
2021/12/24 08:14:36;;;;;;;330.80;213.98;;;25.90;2201.60;;;;;;6102740;23;20006;-86
2021/12/24 08:17:03;;;;;;;333.63;220.63;;;26.10;2201.60;;;;;;6102678;23;19998;-86
2021/12/24 08:19:29;;;;;;;352.05;216.77;;;26.20;2201.60;;;;;;6103027;23;20006;-86
2021/12/24 08:21:56;;;;;;;321.50;209.93;;;26.30;2201.60;;;;;;6103140;23;19998;-85
2021/12/24 08:24:25;;;;;;;321.52;213.07;;;26.40;2201.60;;;;;;6102930;23;20029;-86
2021/12/24 08:27:40;;;;;;;343.98;228.02;;;26.50;2201.60;;;;;;6102697;23;20014;-89
2021/12/24 08:55:07;;;;;;;343.15;226.40;;;52.10;2227.20;;;;;;5872207;24;20049;-89
2021/12/24 08:58:32;;;;;;;340.83;217.77;;;76.80;2227.20;;;;;;5849785;24;20109;-89
2021/12/24 09:39:24;;;;;;;122.45;77.57;;;102.90;2227.20;;;;;;6159398;23;20033;-82
2021/12/24 09:41:50;;;;;;;137.60;85.20;;;103.20;2227.20;;;;;;6130884;23;20427;-83
2021/12/24 09:44:16;;;;;;;98.97;63.97;;;103.10;2227.20;;;;;;6131027;23;20081;-84
2021/12/24 09:46:54;;;;;;;107.75;70.40;;;103.20;2227.20;;;;;;6131362;23;20071;-89
2021/12/24 09:49:58;;;;;;;103.55;63.25;;;103.30;2227.20;;;;;;6132161;23;19998;-88
2021/12/24 09:55:57;;;;;;;87.60;56.30;;;128.10;2252.80;;;;;;6156442;23;20028;-87
2021/12/24 09:58:23;;;;;;;94.45;57.58;;;128.30;2252.80;;;;;;6131718;23;20008;-86
2021/12/24 10:01:28;;;;;;;73.32;46.33;;;128.40;2252.80;;;;;;6131403;23;20029;-87
2021/12/24 10:04:04;;;;;;;85.57;55.38;;;128.60;2252.80;;;;;;6131633;23;20080;-88
2021/12/24 10:06:59;;;;;;;77.22;49.50;;;128.70;2252.80;;;;;;6131324;23;20320;-88
2021/12/24 10:09:33;;;;;;;54.63;34.33;;;153.60;2252.80;;;;;;6014190;23;20099;-88
2021/12/24 10:19:23;;;;;;;63.75;37.38;;;154.50;2252.80;;;;;;6038661;23;20006;-86
2021/12/24 10:22:00;;;;;;;51.47;32.45;;;154.50;2252.80;;;;;;6065349;23;19999;-84
2021/12/24 10:54:06;;;;;;;60.53;44.53;;;179.80;2252.80;;;;;;6125853;23;20075;-82
2021/12/24 10:56:32;;;;;;;59.67;41.40;;;179.90;2252.80;;;;;;6130646;23;20009;-83
2021/12/24 10:58:58;;;;;;;56.10;37.50;;;180.00;2252.80;;;;;;6130592;23;20494;-86
2021/12/24 11:01:24;;;;;;;60.08;40.85;;;180.10;2252.80;;;;;;6130695;23;19998;-81
2021/12/24 11:03:53;;;;;;;57.08;41.17;;;204.80;2252.80;;;;;;6130104;23;19997;-86
2021/12/24 11:06:21;;;;;;;93.07;57.20;;;204.80;2252.80;;;;;;6130071;23;20399;-81
2021/12/24 11:09:05;;;;;;;68.13;45.58;;;204.90;2252.80;;;;;;6130799;23;20373;-85
2021/12/24 11:11:47;;;;;;;51.47;35.90;;;205.10;2252.80;;;;;;6130456;23;20315;-86
2021/12/24 11:14:36;;;;;;;83.88;57.97;;;205.10;2252.80;;;;;;6130599;23;20036;-85
2021/12/24 11:17:13;;;;;;;74.63;51.75;;;205.20;2252.80;;;;;;6130931;23;20009;-85
2021/12/24 11:20:12;;;;;;;53.03;39.63;;;205.30;2252.80;;;;;;6132330;23;19997;-85
2021/12/24 11:23:05;;;;;;;43.42;32.83;;;205.50;2252.80;;;;;;6132091;23;20002;-85
2021/12/24 11:25:48;;;;;;;44.63;31.63;;;205.60;2252.80;;;;;;6131781;23;20437;-85
2021/12/24 11:28:24;;;;;;;;;;;230.40;2252.80;;;;;;6133348;23;20311;-83
2021/12/24 11:31:16;;;;;;;41.80;28.42;;;230.50;2252.80;;;;;;6132526;23;19897;-84
2021/12/24 11:33:44;;;;;;;40.33;25.58;;;230.80;2252.80;;;;;;6131256;23;20415;-81
2021/12/24 11:36:25;;;;;;;38.05;25.85;;;231.10;2252.80;;;;;;6131942;23;20025;-81
2021/12/24 11:38:54;;;;;;;34.42;23.20;;;231.10;2252.80;;;;;;6157730;23;20004;-81
2021/12/24 11:41:26;;;;;;;36.40;26.23;;;231.20;2252.80;;;;;;6132360;23;20005;-82
2021/12/24 11:43:55;;;;;;;40.35;25.58;;;256.00;2252.80;;;;;;6132445;23;19998;-82
2021/12/24 11:46:35;;;;;;;48.20;34.25;;;256.20;2252.80;;;;;;6132018;23;20478;-83
2021/12/24 11:49:01;;;;;;;53.30;37.92;;;256.40;2252.80;;;;;;6158073;23;20002;-84
2021/12/24 11:51:40;;;;;;;59.30;40.83;;;256.90;2252.80;;;;;;6132163;23;20028;-82
2021/12/24 11:54:06;;;;;;;63.40;39.72;;;281.70;2278.40;;;;;;6131662;23;20041;-82
2021/12/24 11:56:57;;;;;;;65.43;41.13;;;281.90;2278.40;;;;;;6132037;23;20001;-83
2021/12/24 11:59:40;;;;;;;63.63;42.50;;;282.10;2278.40;;;;;;6132148;23;20002;-80
2021/12/24 12:02:07;;;;;;;;;;;282.40;2278.40;;;;;;6132552;23;20005;-80
2021/12/24 12:04:33;;;;;;;95.68;64.07;;;282.40;2278.40;;;;;;6132161;23;20236;-80
2021/12/24 12:07:16;;;;;;;79.18;55.47;;;282.50;2278.40;;;;;;6131702;23;20428;-80
2021/12/24 12:09:43;;;;;;;105.97;71.93;;;307.40;2304.00;;;;;;6132073;23;19994;-82
2021/12/24 12:12:13;;;;;;;109.00;73.65;;;307.60;2304.00;;;;;;6131943;23;20001;-81
2021/12/24 12:14:39;;;;;;;70.97;52.08;;;307.80;2304.00;;;;;;6131722;23;20008;-81
2021/12/24 12:17:07;;;;;;;56.97;37.42;;;308.00;2304.00;;;;;;6131874;23;19997;-82
2021/12/24 12:19:44;;;;;;;71.18;48.45;;;308.10;2227.20;;;;;;6132117;23;20470;-81
2021/12/24 12:25:12;;;;;;;63.05;45.80;;;332.80;2201.60;;;;;;6158028;23;20471;-82
2021/12/24 12:28:08;;;;;;;63.17;41.85;;;332.90;2227.20;;;;;;6132140;23;20002;-80
2021/12/24 12:30:48;;;;;;;63.60;46.75;;;333.00;2201.60;;;;;;6124097;23;20002;-81
2021/12/24 12:33:16;;;;;;;51.88;37.88;;;332.90;2176.00;;;;;;6152047;23;20058;-80
2021/12/24 12:35:54;;;;;;;36.65;28.70;;;333.10;2176.00;;;;;;6143824;23;20434;-78
2021/12/24 12:38:38;;;;;;;39.13;25.70;;;333.10;2150.40;;;;;;6132787;23;19998;-80
2021/12/24 12:41:30;;;;;;;31.67;22.33;;;333.10;2150.40;;;;;;6157266;23;20416;-79
2021/12/24 12:43:57;;;;;;;30.90;18.63;;;333.20;2124.80;;;;;;6128930;23;19998;-80
2021/12/24 12:46:32;;;;;;;33.53;18.90;;;333.20;2124.80;;;;;;6130127;23;20005;-79
2021/12/24 12:49:00;;;;;;;25.83;18.63;;;333.20;2150.40;;;;;;6129541;23;20001;-79
2021/12/24 12:51:53;;;;;;;22.73;16.55;;;333.10;2150.40;;;;;;6129813;23;20048;-79
2021/12/24 12:54:48;;;;;;;26.58;17.38;;;333.10;2150.40;;;;;;6130049;23;20475;-79
2021/12/24 12:57:40;;;;;;;31.40;20.63;;;333.10;2150.40;;;;;;6130076;23;20005;-79
2021/12/24 13:00:19;;;;;;;20.35;13.10;;;333.10;2124.80;;;;;;6124293;23;20005;-80
2021/12/24 13:03:17;;;;;;;46.97;32.60;;;333.10;2124.80;;;;;;6156168;23;19994;-77
2021/12/24 13:05:42;;;;;;;23.10;16.30;;;333.10;2124.80;;;;;;6155178;23;20052;-82
2021/12/24 13:08:15;;;;;;;23.50;16.25;;;333.10;2124.80;;;;;;6129672;23;20001;-78
2021/12/24 13:10:50;;;;;;;37.08;22.73;;;333.30;2099.20;;;;;;6129581;23;20005;-79
2021/12/24 13:13:15;;;;;;;37.10;24.25;;;333.40;2099.20;;;;;;6127561;23;20005;-78
2021/12/24 13:15:46;;;;;;;29.65;20.20;;;333.70;2073.60;;;;;;6129502;23;20064;-80
2021/12/24 13:35:46;;;;;;;16.95;10.98;;;358.60;1971.20;;;;;;6155656;23;20020;-76
2021/12/24 13:39:00;;;;;;;28.85;19.35;;;358.50;1996.80;;;;;;6120661;23;19998;-76
2021/12/24 13:44:48;;;;;;;24.58;17.23;;;333.30;2048.00;;;;;;6154289;23;20308;-75
2021/12/24 13:47:41;;;;;;;23.83;16.90;;;333.10;2099.20;;;;;;6129263;23;20002;-75
2021/12/24 13:56:54;;;;;;;22.98;15.80;;;333.10;2073.60;;;;;;6123231;23;20056;-76
2021/12/24 13:59:26;;;;;;;31.02;22.50;;;333.10;2073.60;;;;;;6097912;23;20085;-78
2021/12/24 14:01:57;;;;;;;32.65;19.00;;;333.10;2073.60;;;;;;6098390;23;20006;-75
2021/12/24 14:04:24;;;;;;;35.85;21.30;;;333.10;2073.60;;;;;;6098621;23;20096;-77
2021/12/24 14:06:56;;;;;;;55.92;35.90;;;332.90;2099.20;;;;;;6097776;23;20403;-77
2021/12/24 14:09:33;;;;;;;37.05;24.25;;;308.10;2099.20;;;;;;6098774;23;19998;-77
2021/12/24 14:12:07;;;;;;;21.85;15.32;;;307.90;2124.80;;;;;;6098752;23;20002;-76
2021/12/24 14:14:55;;;;;;;22.95;15.43;;;307.80;2150.40;;;;;;6097439;23;20009;-76
2021/12/24 14:23:13;;;;;;;22.02;14.02;;;307.50;2201.60;;;;;;6155031;23;20005;-75
2021/12/24 14:26:00;;;;;;;21.10;13.88;;;307.30;2227.20;;;;;;6128326;23;20005;-75
2021/12/24 14:28:31;;;;;;;21.00;13.77;;;307.30;2252.80;;;;;;6128538;23;20001;-75
2021/12/24 14:31:14;;;;;;;29.27;18.77;;;307.20;2252.80;;;;;;6129299;23;20001;-76
2021/12/24 14:33:51;;;;;;;25.98;17.05;;;307.20;2278.40;;;;;;6128997;23;20292;-75
2021/12/24 14:36:23;;;;;;;35.38;22.48;;;282.50;2278.40;;;;;;6154814;23;20005;-77
2021/12/24 14:38:52;;;;;;;28.23;19.50;;;282.40;2278.40;;;;;;6129073;23;20036;-76
2021/12/24 14:41:19;;;;;;;77.07;53.20;;;282.20;2278.40;;;;;;6151692;23;20005;-75
2021/12/24 14:43:45;;;;;;;87.68;58.22;;;282.20;2278.40;;;;;;6129253;23;20013;-76
2021/12/24 14:46:11;;;;;;;73.20;52.35;;;282.20;2278.40;;;;;;6128657;23;20028;-78
2021/12/24 14:48:37;;;;;;;46.15;36.33;;;282.10;2278.40;;;;;;6128317;23;20395;-77
2021/12/24 14:51:06;;;;;;;44.13;29.83;;;282.00;2278.40;;;;;;6129033;23;20052;-76
2021/12/24 14:53:42;;;;;;;40.78;28.98;;;282.00;2278.40;;;;;;6128606;23;20004;-76
2021/12/24 14:56:15;;;;;;;39.65;29.15;;;282.00;2278.40;;;;;;6128512;23;20010;-79
2021/12/24 14:58:50;;;;;;;27.40;19.17;;;282.00;2278.40;;;;;;6128832;23;20010;-77
2021/12/24 15:01:26;;;;;;;38.42;27.52;;;282.00;2278.40;;;;;;6129272;23;20006;-76
2021/12/24 15:04:01;;;;;;;46.28;31.13;;;281.90;2278.40;;;;;;6128222;23;20009;-77
2021/12/24 15:06:36;;;;;;;56.60;34.90;;;281.80;2278.40;;;;;;6129286;23;20014;-77
2021/12/24 15:09:20;;;;;;;99.47;52.10;;;281.70;2278.40;;;;;;6128281;23;19998;-78
2021/12/24 15:15:50;;;;;;;63.20;38.42;;;281.60;2278.40;;;;;;6035928;23;20050;-75
2021/12/24 15:22:02;;;;;;;104.10;63.38;;;256.80;2252.80;;;;;;6006423;23;20083;-76
2021/12/24 15:24:28;;;;;;;61.55;35.78;;;256.70;2252.80;;;;;;6011697;23;20440;-76
2021/12/24 15:27:20;;;;;;;61.85;41.53;;;256.60;2252.80;;;;;;6011502;23;20011;-76
2021/12/24 15:30:01;;;;;;;69.03;48.42;;;256.60;2252.80;;;;;;6086975;23;19997;-74
2021/12/24 15:32:27;;;;;;;51.33;32.10;;;256.50;2252.80;;;;;;6128347;23;20072;-77
2021/12/24 15:35:11;;;;;;;48.22;31.65;;;256.50;2252.80;;;;;;6128591;23;20327;-78
2021/12/24 15:37:41;;;;;;;57.33;40.38;;;256.40;2252.80;;;;;;6128538;23;20076;-78
2021/12/24 15:40:12;;;;;;;51.40;36.20;;;256.40;2252.80;;;;;;6127737;23;20020;-75
2021/12/24 15:42:38;;;;;;;45.40;30.23;;;256.60;2252.80;;;;;;6128611;23;20033;-78
2021/12/24 15:45:25;;;;;;;38.40;23.45;;;256.30;2252.80;;;;;;6128175;23;20009;-77
2021/12/24 15:58:42;;;;;;;24.48;15.45;;;256.30;2252.80;;;;;;6123522;23;20041;-77
2021/12/24 16:02:29;;;;;;;50.47;26.90;;;256.30;2252.80;;;;;;6099542;23;20368;-77
2021/12/24 16:05:46;;;;;;;60.85;36.65;;;256.20;2252.80;;;;;;6031213;23;20425;-76
2021/12/24 16:09:23;;;;;;;;;;;;;;;;;;;;;
2021/12/24 16:16:25;;;;;;;;;;;;;;;;;;;;;
2021/12/24 16:19:00;;;;;;;59.85;40.17;;;230.80;2252.80;;;;;;5863336;24;20404;-77
2021/12/24 16:22:26;;;;;;;;;;;;;;;;;;;;;
2021/12/24 16:25:48;;;;;;;67.43;45.35;;;230.90;2252.80;;;;;;6023352;23;20489;-77
2021/12/24 16:28:49;;;;;;;70.20;45.42;;;230.80;2252.80;;;;;;6026796;23;20007;-77
2021/12/24 16:31:30;;;;;;;61.00;40.83;;;230.80;2252.80;;;;;;6012957;23;20030;-79
2021/12/24 16:33:56;;;;;;;51.35;32.47;;;230.70;2252.80;;;;;;6097174;23;20008;-75
2021/12/24 16:36:22;;;;;;;44.30;31.10;;;230.70;2252.80;;;;;;6101016;23;20084;-78
2021/12/24 16:39:06;;;;;;;76.80;51.70;;;230.70;2252.80;;;;;;6100709;23;20044;-79
2021/12/24 16:41:32;;;;;;;345.30;170.00;;;230.70;2252.80;;;;;;6100727;23;20088;-79
2021/12/24 16:47:07;;;;;;;90.35;57.40;;;230.60;2252.80;;;;;;6127712;23;20013;-82
2021/12/24 16:49:35;;;;;;;67.65;39.88;;;230.40;2252.80;;;;;;6100872;23;20005;-81
2021/12/24 16:52:53;;;;;;;;;;;;;;;;;;;;;
2021/12/24 16:55:24;;;;;;;53.97;37.17;;;205.60;2252.80;;;;;;6127781;23;20077;-81
2021/12/24 16:58:01;;;;;;;44.83;31.05;;;230.40;2252.80;;;;;;6102410;23;20034;-80
2021/12/24 17:06:57;;;;;;;63.38;38.00;;;205.60;2252.80;;;;;;6119053;23;20006;-81
2021/12/24 17:09:26;;;;;;;29.75;18.08;;;230.50;2252.80;;;;;;6101166;23;20002;-84
2021/12/24 17:12:20;;;;;;;35.72;23.08;;;230.70;2252.80;;;;;;6101410;23;19994;-82
2021/12/24 17:15:32;;;;;;;33.33;19.50;;;230.90;2252.80;;;;;;6101715;23;20085;-82
2021/12/24 17:18:09;;;;;;;30.23;18.13;;;231.00;2252.80;;;;;;6102108;23;20002;-80
2021/12/24 17:20:36;;;;;;;11.90;7.30;;;230.90;2252.80;;;;;;6102027;23;20436;-85
2021/12/24 17:29:20;;;;;;;35.80;23.77;;;231.10;2252.80;;;;;;6086401;23;20057;-80
2021/12/24 17:32:01;;;;;;;36.58;24.10;;;231.10;2252.80;;;;;;6101744;23;19998;-81
2021/12/24 17:38:03;;;;;;;20.30;11.75;;;231.30;2252.80;;;;;;6093271;23;20060;-82
2021/12/24 17:40:28;;;;;;;15.65;11.48;;;231.30;2252.80;;;;;;6101752;23;20001;-79
2021/12/24 17:53:34;;;;;;;24.40;15.30;;;256.00;2252.80;;;;;;6127364;23;20331;-84
2021/12/24 17:56:12;;;;;;;32.25;21.63;;;231.30;2252.80;;;;;;6101734;23;19998;-81
2021/12/24 17:59:24;;;;;;;16.20;11.52;;;256.00;2252.80;;;;;;6100697;23;20029;-84
2021/12/24 18:01:56;;;;;;;19.02;12.43;;;256.10;2252.80;;;;;;6099915;23;20009;-80
2021/12/24 18:04:41;;;;;;;18.15;13.63;;;256.10;2252.80;;;;;;6101633;23;20001;-81
2021/12/24 18:07:07;;;;;;;17.02;12.38;;;256.10;2252.80;;;;;;6129158;23;20001;-80
2021/12/24 18:10:14;;;;;;;30.08;16.20;;;256.10;2252.80;;;;;;6129449;23;20010;-81
2021/12/24 18:13:17;;;;;;;50.15;33.92;;;256.20;2252.80;;;;;;6124935;23;20023;-82
2021/12/24 18:16:23;;;;;;;28.67;17.73;;;256.20;2252.80;;;;;;6143267;23;20001;-80
2021/12/24 18:18:53;;;;;;;25.38;16.20;;;256.20;2252.80;;;;;;6161798;23;20007;-78
2021/12/24 18:21:19;;;;;;;24.23;11.70;;;256.20;2252.80;;;;;;6160012;23;20001;-80
2021/12/24 18:24:11;;;;;;;29.33;14.75;;;256.40;2252.80;;;;;;6160189;23;20003;-79
2021/12/24 18:49:53;;;;;;;46.70;27.58;;;231.20;2252.80;;;;;;6055491;23;20051;-84
2021/12/24 18:52:40;;;;;;;60.17;34.22;;;231.30;2252.80;;;;;;6186984;23;20000;-81
2021/12/24 18:55:13;;;;;;;62.20;30.90;;;231.30;2252.80;;;;;;6185244;23;20004;-79
2021/12/24 18:57:39;;;;;;;44.65;22.65;;;231.30;2252.80;;;;;;6159720;23;20422;-78
2021/12/24 19:00:07;;;;;;;47.75;25.83;;;231.30;2252.80;;;;;;6159244;23;20013;-76
2021/12/24 19:02:39;;;;;;;15.40;8.10;;;231.30;2252.80;;;;;;6159902;23;20288;-79
2021/12/24 19:05:06;;;;;;;43.03;16.65;;;256.10;2252.80;;;;;;6159358;23;20005;-77
2021/12/24 19:07:31;;;;;;;81.70;31.42;;;256.10;2252.80;;;;;;6185931;23;20000;-78
2021/12/24 19:09:57;;;;;;;67.35;30.60;;;256.10;2252.80;;;;;;6186215;23;19997;-77
2021/12/24 19:12:23;;;;;;;35.80;17.20;;;256.10;2252.80;;;;;;6159528;23;20112;-76
2021/12/24 19:14:49;;;;;;;33.20;19.35;;;256.10;2252.80;;;;;;6185824;23;19997;-77
2021/12/24 19:17:15;;;;;;;33.00;16.63;;;256.10;2252.80;;;;;;6159729;23;20009;-77
2021/12/24 19:19:42;;;;;;;28.33;17.02;;;256.20;2252.80;;;;;;6186121;23;20387;-76
2021/12/24 19:22:08;;;;;;;19.05;10.75;;;256.20;2252.80;;;;;;6159413;23;20000;-76
2021/12/24 19:24:34;;;;;;;30.95;18.60;;;256.30;2252.80;;;;;;6159631;23;19993;-77
2021/12/24 19:27:00;;;;;;;25.08;15.15;;;256.30;2252.80;;;;;;6159655;23;20011;-77
2021/12/24 19:29:26;;;;;;;39.50;21.13;;;256.40;2252.80;;;;;;6159384;23;19993;-76
2021/12/24 19:31:59;;;;;;;42.42;25.35;;;256.40;2252.80;;;;;;6185697;23;20005;-76
2021/12/24 19:34:25;;;;;;;;;;;256.30;2252.80;;;;;;6160049;23;20003;-80
2021/12/24 19:36:51;;;;;;;29.98;18.80;;;256.20;2252.80;;;;;;6159327;23;19948;-80
2021/12/24 19:39:17;;;;;;;48.95;23.92;;;256.30;2252.80;;;;;;6160249;23;20005;-79
2021/12/24 19:41:44;;;;;;;34.25;17.58;;;256.20;2252.80;;;;;;6161292;23;20005;-79
2021/12/24 19:44:10;;;;;;;17.75;11.20;;;256.20;2252.80;;;;;;6161410;23;20001;-83
2021/12/24 19:46:45;;;;;;;21.83;14.73;;;256.20;2252.80;;;;;;6160955;23;20005;-81
2021/12/24 19:49:11;;;;;;;14.00;8.45;;;256.30;2252.80;;;;;;6161295;23;20083;-80
2021/12/24 19:51:37;;;;;;;18.00;11.02;;;256.30;2252.80;;;;;;6161669;23;20004;-82
2021/12/24 19:54:08;;;;;;;16.27;11.15;;;256.30;2252.80;;;;;;6161664;23;20092;-81
2021/12/24 19:56:36;;;;;;;18.20;11.05;;;256.30;2252.80;;;;;;6161322;23;20403;-81
2021/12/24 19:59:17;;;;;;;22.77;16.42;;;256.40;2252.80;;;;;;6160800;23;20315;-80
2021/12/24 20:01:46;;;;;;;20.42;13.57;;;256.30;2252.80;;;;;;6187931;23;19997;-81
2021/12/24 20:04:11;;;;;;;30.67;17.83;;;256.30;2252.80;;;;;;6161318;23;20001;-81
2021/12/24 20:06:42;;;;;;;37.53;21.17;;;256.20;2252.80;;;;;;6161066;23;20040;-81